createdAt,value
2022-09-21T00:02:36.924Z,100703.19
2022-09-21T00:05:25.019Z,100707.25
2022-09-21T00:08:09.881Z,100707.25
2022-09-21T00:10:50.471Z,100716.19
2022-09-21T00:13:36.822Z,100714.09
2022-09-21T00:16:23.858Z,100711.81
2022-09-21T00:19:11.833Z,100715.22
2022-09-21T00:22:01.816Z,100708.06
2022-09-21T00:24:42.124Z,100706.28
2022-09-21T00:27:28.803Z,100713.13
2022-09-21T00:30:09.949Z,100718.66
2022-09-21T00:32:56.796Z,100721.91
2022-09-21T00:35:43.840Z,100710.84
2022-09-21T00:38:30.810Z,100718.00
2022-09-21T00:41:11.872Z,100713.16
2022-09-21T00:44:37.836Z,100711.50
2022-09-21T00:47:26.800Z,100714.44
2022-09-21T00:50:11.704Z,100710.69
2022-09-21T00:53:02.838Z,100713.81
2022-09-21T00:55:59.592Z,100706.97
2022-09-21T00:58:46.927Z,100711.66
2022-09-21T01:01:33.817Z,100721.13
2022-09-21T01:04:14.943Z,100716.38
2022-09-21T01:07:05.789Z,100712.50
2022-09-21T01:09:55.803Z,100720.47
2022-09-21T01:13:08.785Z,100715.59
2022-09-21T01:16:11.776Z,100716.56
2022-09-21T01:19:10.768Z,100710.69
2022-09-21T01:22:06.787Z,100711.69
2022-09-21T01:25:03.843Z,100715.06
2022-09-21T01:28:26.781Z,100708.25
2022-09-21T01:31:17.811Z,100696.53
2022-09-21T01:34:02.620Z,100691.84
2022-09-21T01:36:51.780Z,100695.56
2022-09-21T01:39:35.225Z,100684.38
2022-09-21T01:42:22.761Z,100699.31
2022-09-21T01:45:07.207Z,100689.38
2022-09-21T01:47:54.722Z,100692.16
2022-09-21T01:50:41.407Z,100687.94
2022-09-21T01:53:37.725Z,100685.19
2022-09-21T01:56:31.088Z,100682.41
2022-09-21T01:59:40.731Z,100684.50
2022-09-21T02:02:41.720Z,100684.66
2022-09-21T02:05:24.925Z,100672.81
2022-09-21T02:08:12.744Z,100677.19
2022-09-21T02:10:57.913Z,100681.25
2022-09-21T02:13:49.725Z,100682.69
2022-09-21T02:17:02.662Z,100690.53
2022-09-21T02:19:56.704Z,100690.66
2022-09-21T02:22:49.727Z,100686.75
2022-09-21T02:25:48.704Z,100687.22
2022-09-21T02:28:40.857Z,100695.66
2022-09-21T02:31:45.685Z,100692.25
2022-09-21T02:34:52.651Z,100688.34
2022-09-21T02:38:02.946Z,100691.75
2022-09-21T02:40:46.764Z,100686.22
2022-09-21T02:43:46.661Z,100692.09
2022-09-21T02:46:33.826Z,100688.81
2022-09-21T02:49:28.680Z,100695.81
2022-09-21T02:52:14.731Z,100692.41
2022-09-21T02:55:02.659Z,100687.53
2022-09-21T02:57:44.750Z,100680.50
2022-09-21T03:00:26.727Z,100696.47
2022-09-21T03:03:24.654Z,100689.94
2022-09-21T03:25:23.465Z,100685.75
2022-09-21T03:28:10.493Z,100685.47
2022-09-21T03:30:50.567Z,100686.34
2022-09-21T03:33:37.467Z,100687.75
2022-09-21T03:36:17.573Z,100699.16
2022-09-21T03:39:04.444Z,100691.84
2022-09-21T03:41:44.753Z,100700.13
2022-09-21T03:44:33.435Z,100698.84
2022-09-21T03:47:13.607Z,100692.19
2022-09-21T03:50:00.459Z,100701.94
2022-09-21T03:52:47.448Z,100708.44
2022-09-21T03:55:28.154Z,100709.28
2022-09-21T03:58:14.392Z,100706.81
2022-09-21T04:01:01.432Z,100709.28
2022-09-21T04:03:48.428Z,100712.84
2022-09-21T04:06:28.804Z,100717.38
2022-09-21T04:09:15.385Z,100708.97
2022-09-21T04:12:02.402Z,100707.19
2022-09-21T04:14:42.484Z,100711.59
2022-09-21T04:17:29.401Z,100723.94
2022-09-21T04:20:17.419Z,100721.53
2022-09-21T04:23:11.394Z,100713.72
2022-09-21T04:26:01.423Z,100714.69
2022-09-21T04:28:41.483Z,100706.94
2022-09-21T04:31:29.429Z,100712.81
2022-09-21T04:34:16.389Z,100713.13
2022-09-21T04:36:58.344Z,100713.13
2022-09-21T04:39:45.419Z,100714.78
2022-09-21T04:42:27.611Z,100710.81
2022-09-21T04:45:14.376Z,100717.59
2022-09-21T04:47:54.719Z,100719.38
2022-09-21T04:50:41.401Z,100725.00
2022-09-21T04:53:21.745Z,100731.59
2022-09-21T04:56:08.343Z,100729.16
2022-09-21T04:58:48.776Z,100726.81
2022-09-21T05:01:35.378Z,100726.38
2022-09-21T05:04:22.369Z,100723.97
2022-09-21T05:07:09.331Z,100726.34
2022-09-21T05:10:11.332Z,100721.34
2022-09-21T05:12:59.348Z,100720.13
2022-09-21T05:15:46.368Z,100717.25
2022-09-21T05:18:26.437Z,100718.38
2022-09-21T05:21:14.342Z,100710.19
2022-09-21T05:24:08.316Z,100711.25
2022-09-21T05:26:48.741Z,100702.00
2022-09-21T05:29:35.312Z,100708.16
2022-09-21T05:32:43.308Z,100711.00
2022-09-21T05:35:45.264Z,100714.44
2022-09-21T05:38:26.035Z,100712.09
2022-09-21T05:41:12.307Z,100706.53
2022-09-21T05:43:52.956Z,100711.56
2022-09-21T05:46:42.337Z,100703.84
2022-09-21T05:49:39.293Z,100703.78
2022-09-21T05:52:42.310Z,100709.09
2022-09-21T05:55:37.751Z,100705.75
2022-09-21T05:58:34.307Z,100705.31
2022-09-21T06:01:29.692Z,100713.03
2022-09-21T06:04:17.302Z,100708.69
2022-09-21T06:07:04.289Z,100713.78
2022-09-21T06:09:51.287Z,100710.06
2022-09-21T06:12:38.302Z,100705.81
2022-09-21T06:15:20.352Z,100716.63
2022-09-21T06:18:07.274Z,100709.13
2022-09-21T06:20:47.383Z,100708.38
2022-09-21T06:23:34.481Z,100708.31
2022-09-21T06:26:21.281Z,100715.59
2022-09-21T06:29:01.646Z,100723.13
2022-09-21T06:31:48.249Z,100719.09
2022-09-21T06:34:28.644Z,100717.94
2022-09-21T06:37:15.253Z,100713.47
2022-09-21T06:39:55.701Z,100726.41
2022-09-21T06:42:42.259Z,100712.41
2022-09-21T06:45:22.695Z,100732.91
2022-09-21T06:48:09.235Z,100719.00
2022-09-21T06:50:50.254Z,100718.47
2022-09-21T06:53:37.207Z,100715.44
2022-09-21T06:56:17.975Z,100711.78
2022-09-21T06:59:04.240Z,100712.09
2022-09-21T07:01:44.661Z,100712.50
2022-09-21T07:04:36.241Z,100708.19
2022-09-21T07:07:16.535Z,100702.00
2022-09-21T07:10:07.213Z,100703.38
2022-09-21T07:12:47.577Z,100708.13
2022-09-21T07:15:35.224Z,100708.47
2022-09-21T07:18:22.385Z,100707.41
2022-09-21T07:21:02.148Z,100707.00
2022-09-21T07:23:49.210Z,100704.16
2022-09-21T07:26:36.214Z,100711.97
2022-09-21T07:29:16.626Z,100709.63
2022-09-21T07:32:03.249Z,100705.22
2022-09-21T07:34:43.979Z,100702.81
2022-09-21T07:37:31.163Z,100703.66
2022-09-21T07:40:11.621Z,100706.50
2022-09-21T07:42:58.207Z,100703.28
2022-09-21T07:45:38.760Z,100702.72
2022-09-21T07:48:25.209Z,100706.50
2022-09-21T07:51:14.176Z,100706.13
2022-09-21T07:54:01.210Z,100699.06
2022-09-21T07:56:42.805Z,100702.69
2022-09-21T07:59:29.191Z,100700.53
2022-09-21T08:02:16.224Z,100693.09
2022-09-21T08:05:03.154Z,100691.91
2022-09-21T08:07:50.217Z,100683.22
2022-09-21T08:10:32.098Z,100686.38
2022-09-21T08:13:19.118Z,100691.53
2022-09-21T08:16:17.174Z,100689.69
2022-09-21T08:19:04.096Z,100696.59
2022-09-21T08:21:44.290Z,100697.72
2022-09-21T08:24:32.143Z,100703.38
2022-09-21T08:27:19.165Z,100701.22
2022-09-21T08:29:59.537Z,100688.91
2022-09-21T08:32:51.477Z,100697.41
2022-09-21T08:35:39.183Z,100685.63
2022-09-21T08:38:26.146Z,100695.16
2022-09-21T08:41:15.388Z,100695.41
2022-09-21T08:44:27.121Z,100687.53
2022-09-21T08:47:28.103Z,100685.88
2022-09-21T08:50:10.187Z,100697.47
2022-09-21T08:53:04.100Z,100693.31
2022-09-21T08:55:51.128Z,100686.28
2022-09-21T08:58:34.023Z,100675.44
2022-09-21T09:01:26.165Z,100679.41
2022-09-21T09:04:15.475Z,100670.88
2022-09-21T09:07:22.118Z,100670.97
2022-09-21T09:10:27.083Z,100664.41
2022-09-21T09:13:16.464Z,100668.31
2022-09-21T09:16:29.133Z,100654.88
2022-09-21T09:19:29.068Z,100662.66
2022-09-21T09:22:20.103Z,100656.25
2022-09-21T09:25:13.087Z,100647.91
2022-09-21T09:27:55.209Z,100655.16
2022-09-21T09:30:42.069Z,100646.94
2022-09-21T09:34:05.262Z,100646.81
2022-09-21T09:36:59.395Z,100650.72
2022-09-21T09:39:39.192Z,100647.75
2022-09-21T09:42:35.069Z,100643.84
2022-09-21T09:45:31.049Z,100637.50
2022-09-21T09:48:34.054Z,100644.19
2022-09-21T09:51:26.077Z,100649.00
2022-09-21T09:54:14.312Z,100651.94
2022-09-21T09:57:02.060Z,100645.91
2022-09-21T09:59:51.903Z,100642.22
2022-09-21T10:02:42.049Z,100655.16
2022-09-21T10:05:39.067Z,100643.63
2022-09-21T10:08:41.060Z,100650.41
2022-09-21T10:11:28.071Z,100640.78
2022-09-21T10:14:17.206Z,100641.31
2022-09-21T10:17:12.050Z,100639.06
2022-09-21T10:19:53.159Z,100634.22
2022-09-21T10:22:40.023Z,100642.09
2022-09-21T10:25:28.209Z,100633.09
2022-09-21T10:28:11.004Z,100629.91
2022-09-21T10:31:16.089Z,100621.63
2022-09-21T10:34:16.321Z,100635.16
2022-09-21T10:37:06.016Z,100629.16
2022-09-21T10:40:00.049Z,100631.75
2022-09-21T10:42:42.772Z,100620.19
2022-09-21T10:45:31.989Z,100630.88
2022-09-21T10:48:19.232Z,100620.56
2022-09-21T10:51:08.012Z,100631.50
2022-09-21T10:53:55.977Z,100616.75
2022-09-21T10:56:36.066Z,100627.34
2022-09-21T10:59:25.953Z,100618.19
2022-09-21T11:02:08.106Z,100619.53
2022-09-21T11:04:59.981Z,100621.81
2022-09-21T11:08:08.089Z,100624.13
2022-09-21T11:11:20.999Z,100624.50
2022-09-21T11:14:11.103Z,100620.25
2022-09-21T11:17:16.961Z,100618.63
2022-09-21T11:20:11.125Z,100604.66
2022-09-21T11:23:20.971Z,100603.44
2022-09-21T11:26:32.990Z,100608.56
2022-09-21T11:29:24.381Z,100608.91
2022-09-21T11:32:13.954Z,100606.66
2022-09-21T11:35:12.790Z,100600.47
2022-09-21T11:38:17.952Z,100618.75
2022-09-21T11:41:10.927Z,100605.81
2022-09-21T11:43:59.926Z,100621.16
2022-09-21T11:46:56.914Z,100623.13
2022-09-21T11:50:34.920Z,100626.50
2022-09-21T11:53:43.346Z,100624.69
2022-09-21T11:56:49.899Z,100625.63
2022-09-21T11:59:34.392Z,100634.81
2022-09-21T12:02:35.951Z,100658.44
2022-09-21T12:05:38.929Z,100678.72
2022-09-21T12:08:31.034Z,100678.06
2022-09-21T12:11:50.924Z,100683.81
2022-09-21T12:14:49.901Z,100677.56
2022-09-21T12:17:36.913Z,100687.94
2022-09-21T12:20:20.008Z,100688.78
2022-09-21T12:23:12.894Z,100693.16
2022-09-21T12:26:04.007Z,100690.22
2022-09-21T12:28:51.863Z,100689.97
2022-09-21T12:31:48.895Z,100685.59
2022-09-21T12:34:40.863Z,100696.97
2022-09-21T12:37:31.824Z,100694.56
2022-09-21T12:40:33.974Z,100705.78
2022-09-21T12:43:28.880Z,100698.53
2022-09-21T12:46:15.029Z,100701.84
2022-09-21T12:49:02.829Z,100699.72
2022-09-21T12:51:48.937Z,100707.53
2022-09-21T12:54:42.630Z,100695.72
2022-09-21T12:58:14.040Z,100690.03
2022-09-21T13:01:09.920Z,100692.41
2022-09-21T13:04:02.855Z,100692.16
2022-09-21T13:06:52.315Z,100689.31
2022-09-21T13:09:40.836Z,100685.50
2022-09-21T13:12:26.041Z,100691.38
2022-09-21T13:15:17.815Z,100674.97
2022-09-21T13:18:04.379Z,100673.13
2022-09-21T13:20:53.862Z,100676.75
2022-09-21T13:23:42.372Z,100675.44
2022-09-21T13:26:28.822Z,100675.97
2022-09-21T13:29:19.074Z,100670.16
2022-09-21T13:32:05.805Z,100667.47
2022-09-21T13:34:53.800Z,100664.19
2022-09-21T13:37:42.802Z,100660.59
2022-09-21T13:40:31.867Z,100658.44
2022-09-21T13:43:26.958Z,100660.72
2022-09-21T13:46:13.885Z,100664.88
2022-09-21T13:48:59.913Z,100652.34
2022-09-21T13:52:17.818Z,100652.41
2022-09-21T13:54:59.285Z,100649.81
2022-09-21T13:57:54.772Z,100651.00
2022-09-21T14:01:23.886Z,100641.06
2022-09-21T14:04:22.947Z,100645.69
2022-09-21T14:07:10.783Z,100649.22
2022-09-21T14:09:57.838Z,100644.56
2022-09-21T14:12:51.738Z,100651.03
2022-09-21T14:15:42.753Z,100651.53
2022-09-21T14:18:29.761Z,100644.69
2022-09-21T14:21:19.470Z,100648.34
2022-09-21T14:24:20.704Z,100652.75
2022-09-21T14:27:21.766Z,100649.03
2022-09-21T14:30:24.881Z,100644.16
2022-09-21T14:33:31.700Z,100646.78
2022-09-21T14:36:21.221Z,100647.84
2022-09-21T14:39:11.762Z,100652.50
2022-09-21T14:41:55.851Z,100642.50
2022-09-21T14:44:43.740Z,100641.50
2022-09-21T14:47:36.740Z,100642.69
2022-09-21T14:50:26.413Z,100639.75
2022-09-21T14:53:24.722Z,100636.88
2022-09-21T14:56:42.557Z,100641.50
2022-09-21T14:59:29.730Z,100642.91
2022-09-21T15:02:21.425Z,100645.16
2022-09-21T15:05:23.725Z,100646.78
2022-09-21T15:09:04.783Z,100635.09
2022-09-21T15:27:40.141Z,100637.72
2022-09-21T15:30:28.665Z,100635.81
2022-09-21T15:33:16.069Z,100633.22
2022-09-21T15:36:01.273Z,100631.19
2022-09-21T15:38:50.079Z,100625.09
2022-09-21T15:41:39.675Z,100634.44
2022-09-21T15:44:30.092Z,100644.59
2022-09-21T15:47:20.168Z,100641.22
2022-09-21T15:50:07.060Z,100661.63
2022-09-21T15:53:02.089Z,100658.53
2022-09-21T15:55:42.155Z,100669.63
2022-09-21T15:58:44.019Z,100662.13
2022-09-21T16:01:28.219Z,100663.59
2022-09-21T16:04:19.095Z,100669.09
2022-09-21T16:07:17.042Z,100672.03
2022-09-21T16:10:04.073Z,100668.75
2022-09-21T16:12:45.134Z,100672.22
2022-09-21T16:15:39.040Z,100658.44
2022-09-21T16:18:37.156Z,100664.59
2022-09-21T16:21:34.048Z,100676.50
2022-09-21T16:24:30.065Z,100668.81
2022-09-21T16:27:23.128Z,100668.25
2022-09-21T16:30:04.030Z,100682.47
2022-09-21T16:32:52.371Z,100675.41
2022-09-21T16:35:36.017Z,100680.41
2022-09-21T16:38:16.824Z,100679.69
2022-09-21T16:41:04.037Z,100680.97
2022-09-21T16:43:45.176Z,100682.97
2022-09-21T16:46:33.029Z,100682.59
2022-09-21T16:49:24.854Z,100687.44
2022-09-21T16:52:07.978Z,100691.28
2022-09-21T16:54:51.115Z,100686.28
2022-09-21T16:57:40.971Z,100693.25
2022-09-21T17:00:29.037Z,100705.38
2022-09-21T17:03:09.114Z,100710.13
2022-09-21T17:05:55.938Z,100707.56
2022-09-21T17:08:43.975Z,100716.72
2022-09-21T17:11:24.348Z,100721.53
2022-09-21T17:14:11.974Z,100720.34
2022-09-21T17:17:02.953Z,100727.53
2022-09-21T17:19:50.117Z,100717.72
2022-09-21T17:22:36.947Z,100725.22
2022-09-21T17:25:23.917Z,100720.81
2022-09-21T17:28:20.948Z,100719.44
2022-09-21T17:31:07.998Z,100719.97
2022-09-21T17:33:50.419Z,100716.84
2022-09-21T17:36:36.948Z,100730.69
2022-09-21T17:39:24.950Z,100729.13
2022-09-21T17:42:33.948Z,100730.38
2022-09-21T17:45:44.941Z,100741.31
2022-09-21T17:48:29.559Z,100748.09
2022-09-21T17:51:39.933Z,100736.66
2022-09-21T17:54:19.983Z,100737.06
2022-09-21T17:57:18.938Z,100747.69
2022-09-21T18:00:21.271Z,100737.41
2022-09-21T18:03:07.977Z,100742.94
2022-09-21T18:05:59.436Z,100739.25
2022-09-21T18:08:41.974Z,100743.63
2022-09-21T18:11:56.219Z,100742.44
2022-09-21T18:15:15.862Z,100752.16
2022-09-21T18:17:59.084Z,100743.81
2022-09-21T18:20:54.908Z,100745.25
2022-09-21T18:23:56.860Z,100749.72
2022-09-21T18:26:45.878Z,100746.41
2022-09-21T18:29:40.793Z,100746.59
2022-09-21T18:32:33.889Z,100745.66
2022-09-21T18:36:17.872Z,100741.31
2022-09-21T18:39:27.973Z,100747.69
2022-09-21T18:42:28.870Z,100746.91
2022-09-21T18:45:20.852Z,100745.16
2022-09-21T18:48:31.868Z,100750.06
2022-09-21T18:51:21.885Z,100749.66
2022-09-21T18:54:02.559Z,100745.59
2022-09-21T18:56:50.804Z,100739.22
2022-09-21T18:59:37.863Z,100736.19
2022-09-21T19:02:20.329Z,100734.03
2022-09-21T19:05:06.872Z,100727.69
2022-09-21T19:08:07.811Z,100731.13
2022-09-21T19:10:57.349Z,100727.94
2022-09-21T19:13:55.788Z,100720.91
2022-09-21T19:17:33.858Z,100728.56
2022-09-21T19:20:49.841Z,100726.63
2022-09-21T19:23:56.948Z,100722.22
2022-09-21T19:27:03.811Z,100729.03
2022-09-21T19:30:10.825Z,100724.50
2022-09-21T19:33:06.810Z,100728.22
2022-09-21T19:35:47.382Z,100731.63
2022-09-21T19:38:33.798Z,100726.06
2022-09-21T19:41:14.159Z,100732.56
2022-09-21T19:44:13.813Z,100728.84
2022-09-21T19:47:18.481Z,100725.88
2022-09-21T19:50:09.804Z,100732.09
2022-09-21T19:52:52.125Z,100716.47
2022-09-21T19:55:57.795Z,100716.63
2022-09-21T19:59:02.787Z,100723.56
2022-09-21T20:01:58.768Z,100728.16
2022-09-21T20:05:11.871Z,100726.34
2022-09-21T20:07:59.872Z,100724.06
2022-09-21T20:11:20.737Z,100734.78
2022-09-21T20:14:29.758Z,100727.75
2022-09-21T20:17:26.768Z,100729.56
2022-09-21T20:20:26.740Z,100731.41
2022-09-21T20:23:17.764Z,100737.41
2022-09-21T20:26:11.743Z,100733.69
2022-09-21T20:28:59.732Z,100733.91
2022-09-21T20:31:39.881Z,100733.69
2022-09-21T20:34:26.752Z,100729.56
2022-09-21T20:37:06.821Z,100734.63
2022-09-21T20:39:53.726Z,100725.84
2022-09-21T20:42:38.323Z,100728.50
2022-09-21T20:45:24.793Z,100722.66
2022-09-21T20:48:20.761Z,100727.03
2022-09-21T20:51:08.720Z,100727.03
2022-09-21T20:53:48.785Z,100730.97
2022-09-21T20:56:36.702Z,100731.44
2022-09-21T20:59:16.898Z,100736.81
2022-09-21T21:02:03.679Z,100737.31
2022-09-21T21:04:50.672Z,100729.00
2022-09-21T21:07:31.638Z,100730.16
2022-09-21T21:10:22.689Z,100726.22
2022-09-21T21:13:10.683Z,100723.59
2022-09-21T21:15:57.690Z,100725.91
2022-09-21T21:18:46.707Z,100726.91
2022-09-21T21:21:33.696Z,100730.53
2022-09-21T21:24:32.863Z,100727.44
2022-09-21T21:27:25.697Z,100721.22
2022-09-21T21:30:14.649Z,100725.81
2022-09-21T21:33:01.654Z,100725.81
2022-09-21T21:35:48.668Z,100715.41
2022-09-21T21:38:35.653Z,100703.66
2022-09-21T21:41:16.217Z,100704.47
2022-09-21T21:44:02.664Z,100705.56
2022-09-21T21:46:43.442Z,100709.78
2022-09-21T21:49:30.667Z,100707.38
2022-09-21T21:52:18.617Z,100699.75
2022-09-21T21:55:05.639Z,100706.44
2022-09-21T21:57:52.648Z,100696.28
2022-09-21T22:00:32.862Z,100705.41
2022-09-21T22:03:19.679Z,100703.47
2022-09-21T22:06:01.735Z,100700.34
2022-09-21T22:08:49.625Z,100701.03
2022-09-21T22:11:38.608Z,100685.88
2022-09-21T22:14:19.112Z,100683.63
2022-09-21T22:17:05.628Z,100692.13
2022-09-21T22:19:45.992Z,100689.22
2022-09-21T22:22:32.618Z,100691.53
2022-09-21T22:25:19.590Z,100698.53
2022-09-21T22:28:13.593Z,100686.03
2022-09-21T22:31:00.582Z,100687.03
2022-09-21T22:33:47.583Z,100688.53
2022-09-21T22:36:37.677Z,100687.88
2022-09-21T22:39:18.583Z,100691.16
2022-09-21T22:42:05.605Z,100684.34
2022-09-21T22:44:45.639Z,100687.28
2022-09-21T22:47:32.586Z,100681.91
2022-09-21T22:50:13.681Z,100675.09
2022-09-21T22:53:00.564Z,100680.50
2022-09-21T22:55:40.677Z,100680.34
2022-09-21T22:58:27.581Z,100689.31
2022-09-21T23:01:20.720Z,100683.59
2022-09-21T23:04:13.632Z,100678.75
2022-09-21T23:06:53.653Z,100668.50
2022-09-21T23:09:40.565Z,100678.75
2022-09-21T23:12:27.557Z,100677.94
2022-09-21T23:15:15.531Z,100678.16
2022-09-21T23:17:55.641Z,100683.16
2022-09-21T23:20:43.527Z,100690.00
2022-09-21T23:23:30.505Z,100683.50
2022-09-21T23:26:21.545Z,100682.06
2022-09-21T23:29:08.274Z,100678.16
2022-09-21T23:31:55.622Z,100673.13
2022-09-21T23:34:42.505Z,100677.06
2022-09-21T23:37:22.911Z,100669.56
2022-09-21T23:40:09.584Z,100681.91
2022-09-21T23:42:49.878Z,100677.53
2022-09-21T23:45:36.540Z,100672.00
2022-09-21T23:48:23.513Z,100672.66
2022-09-21T23:51:10.497Z,100673.31
2022-09-21T23:53:51.093Z,100678.03
2022-09-21T23:56:37.483Z,100674.13
2022-09-21T23:59:24.509Z,100670.88
